Latest Weather Observations for Tasman Island

IDT60801

Issued at 6:05 am EST Saturday 26 July 2014 (issued every 30 minutes, with the page automatically refreshed every 10 minutes)

About weather observations | Map of weather stations | Latest weather observations for TAS | Other Formats
Station Details ID: 094155 Name: TASMAN ISLAND Lat: -43.24 Lon: 148.00 Height: 240.0 m
Data from the previous 72 hours. | See also: Recent months at Tasman Island
Date/Time
EST
Temp
°C
App
Temp
°C
Dew
Point
Rel
Hum
%
Delta-T
°C
Wind Press
QNH
hPa
Press
MSL
hPa
Rain
since 9 am
mm
Dir
 
Spd
km/h
Gust
km/h
Spd
kts
Gust
kts
26/06:00am 10.6 9.4 10.4 99 0.1 E 7 19 4 10 1019.4 1019.8 2.8
26/05:30am 11.0 10.5 10.8 99 0.1 NNE 4 13 2 7 1019.4 - 2.6
26/05:00am 10.9 10.0 10.7 99 0.1 NE 6 17 3 9 1019.4 1019.8 2.6
26/04:30am 11.0 10.1 10.8 99 0.1 ENE 6 17 3 9 1019.1 - 2.6
26/04:00am 11.1 10.3 10.9 99 0.1 NE 6 15 3 8 1018.9 1019.2 2.6
26/03:30am 11.2 10.4 11.0 99 0.1 NNW 6 15 3 8 1018.9 - 2.6
26/03:00am 11.4 11.0 11.2 99 0.1 E 4 19 2 10 1019.1 1019.4 2.6
26/02:30am 11.2 9.1 11.0 99 0.1 NE 13 28 7 15 1019.1 - 2.6
26/02:00am 11.3 9.2 11.1 99 0.1 NE 13 20 7 11 1019.0 1019.3 2.4
26/01:30am 10.3 7.3 9.4 94 0.5 NE 15 22 8 12 1018.7 - 2.4
26/01:00am 10.0 7.2 8.6 91 0.7 NNE 13 22 7 12 1018.6 1019.0 2.4
26/12:30am 10.1 7.5 9.2 94 0.5 NNE 13 20 7 11 1018.7 - 2.4
26/12:00am 10.3 8.3 10.0 98 0.2 NNE 11 17 6 9 1019.0 1019.3 2.4
 
Date/Time
EST
Temp
°C
App
Temp
°C
Dew
Point
Rel
Hum
%
Delta-T
°C
Wind Press
QNH
hPa
Press
MSL
hPa
Rain
since 9 am
mm
Dir
 
Spd
km/h
Gust
km/h
Spd
kts
Gust
kts
25/11:30pm 11.1 8.2 10.9 99 0.1 NE 17 33 9 18 1019.2 - 2.2
25/11:00pm 11.1 8.9 10.9 99 0.1 NE 13 19 7 10 1019.0 1019.3 1.6
25/10:30pm 10.6 8.3 10.4 99 0.1 NE 13 19 7 10 1019.0 - 1.6
25/10:00pm 10.5 8.5 10.3 99 0.1 NE 11 20 6 11 1019.1 1019.4 1.6
25/09:30pm 10.4 8.0 10.1 98 0.2 NNE 13 22 7 12 1019.1 - 1.6
25/09:00pm 10.6 7.8 10.1 97 0.3 NE 15 22 8 12 1019.0 1019.3 1.6
25/08:30pm 10.4 7.8 9.2 92 0.6 NE 13 24 7 13 1019.1 - 1.6
25/08:00pm 10.5 7.7 8.4 87 1.0 NNE 13 19 7 10 1018.7 1019.1 1.6
25/07:30pm 10.6 8.1 8.2 85 1.2 NNE 11 17 6 9 1018.4 - 1.6
25/07:00pm 10.7 8.1 7.9 83 1.4 NNE 11 15 6 8 1018.4 1018.8 1.6
25/06:30pm 10.6 6.8 7.7 82 1.4 N 17 22 9 12 1018.0 - 1.6
25/06:00pm 10.8 6.8 8.9 88 1.0 N 20 30 11 16 1017.6 1018.0 1.6
25/05:30pm 10.8 5.2 10.0 95 0.4 N 30 35 16 19 1017.6 - 1.6
25/05:00pm 11.1 6.8 10.9 99 0.1 N 24 35 13 19 1017.4 1017.8 1.6
25/04:30pm 11.9 7.5 11.7 99 0.1 NNE 26 37 14 20 1017.4 - 1.6
25/04:00pm 12.2 8.3 12.0 99 0.1 NNE 24 35 13 19 1017.6 1018.0 1.6
25/03:30pm 12.6 6.2 12.1 97 0.3 NNE 37 50 20 27 1017.1 - 1.6
25/03:00pm 12.3 6.7 12.1 99 0.1 NNE 33 44 18 24 1017.0 1017.4 1.6
25/02:30pm 12.3 6.9 12.1 99 0.1 NNE 32 43 17 23 1017.1 - 1.6
25/02:00pm 12.4 6.9 12.4 100 0.0 NNE 33 44 18 24 1017.1 1017.5 1.6
25/01:30pm 12.4 6.5 12.4 100 0.0 NNE 35 46 19 25 1017.0 - 1.6
25/01:00pm 12.4 7.0 12.2 99 0.1 NNE 32 43 17 23 1016.9 1017.3 1.6
25/12:30pm 12.5 8.7 12.3 99 0.1 NNE 24 41 13 22 1017.2 - 1.6
25/12:00pm 12.4 9.3 12.1 98 0.2 NNE 20 33 11 18 1017.6 1018.0 1.6
25/11:30am 12.4 8.8 11.9 97 0.3 NNE 22 33 12 18 1017.9 - 1.6
25/11:00am 12.1 7.1 9.7 85 1.2 NNE 26 44 14 24 1018.2 1018.6 1.6
25/10:30am 10.4 3.2 7.5 82 1.4 NNE 35 61 19 33 1018.6 - 0.8
25/10:23am 11.4 5.4 6.9 74 2.2 NNE 28 48 15 26 1018.6 - 0.8
25/10:00am 10.6 5.9 6.2 74 2.1 N 20 28 11 15 1018.3 1018.7 0.8
25/09:32am 10.8 3.7 6.2 73 2.2 N 33 70 18 38 1018.6 - 0.4
25/09:31am 10.7 3.6 6.3 74 2.1 N 33 52 18 28 1018.4 - 0.4
25/09:30am 10.6 3.5 6.2 74 2.1 N 33 52 18 28 1018.5 - 0.4
25/09:23am 10.4 2.7 7.3 81 1.5 N 37 57 20 31 1018.5 - 0.2
25/09:20am 10.5 2.1 7.2 80 1.6 N 41 57 22 31 1018.4 - 0.2
25/09:00am 11.9 7.1 11.6 98 0.2 NNE 28 57 15 31 1018.4 1018.8 0.0
25/08:59am 11.9 7.1 11.6 98 0.2 NNE 28 57 15 31 1018.4 - 0.0
25/08:30am 11.5 5.4 9.9 90 0.8 NNE 32 46 17 25 1018.0 - 0.0
25/08:17am 10.8 4.8 10.8 100 0.0 N 33 54 18 29 1017.7 - 0.0
25/08:00am 12.1 7.8 12.1 100 0.0 NE 26 44 14 24 1017.4 1017.8 0.0
25/07:30am 12.1 8.2 12.1 100 0.0 NE 24 48 13 26 1017.5 - 0.0
25/07:00am 11.9 8.7 11.9 100 0.0 NE 20 46 11 25 1017.3 1017.7 0.0
25/06:30am 11.8 8.2 11.8 100 0.0 NE 22 43 12 23 1017.3 - 0.0
25/06:00am 11.8 8.8 11.8 100 0.0 NNE 19 35 10 19 1017.1 1017.5 0.0
25/05:30am 11.7 7.7 11.7 100 0.0 NNE 24 39 13 21 1017.2 - 0.0
25/05:00am 11.6 8.2 11.4 99 0.1 NNE 20 35 11 19 1017.2 1017.6 0.0
25/04:30am 11.5 7.7 11.3 99 0.1 NNE 22 41 12 22 1017.2 - 0.0
25/04:00am 11.4 8.6 11.2 99 0.1 NNE 17 35 9 19 1017.1 1017.5 0.0
25/03:30am 11.5 8.1 11.3 99 0.1 NNE 20 43 11 23 1017.1 - 0.0
25/03:00am 11.4 7.6 11.2 99 0.1 NNE 22 35 12 19 1017.2 1017.6 0.0
25/02:30am 11.2 7.7 10.9 98 0.2 NNE 20 30 11 16 1017.5 - 0.0
25/02:00am 11.3 8.0 10.8 97 0.3 NNE 19 32 10 17 1017.6 1018.0 0.0
25/01:30am 11.2 5.7 10.4 95 0.4 NNE 30 41 16 22 1017.6 - 0.0
25/01:00am 11.0 5.8 10.1 94 0.5 NNE 28 44 15 24 1017.8 1018.2 0.0
25/12:30am 11.0 5.6 9.6 91 0.7 NNE 28 43 15 23 1017.9 - 0.0
25/12:00am 11.1 6.5 9.5 90 0.8 NNE 24 39 13 21 1018.1 1018.5 0.0
 
Date/Time
EST
Temp
°C
App
Temp
°C
Dew
Point
Rel
Hum
%
Delta-T
°C
Wind Press
QNH
hPa
Press
MSL
hPa
Rain
since 9 am
mm
Dir
 
Spd
km/h
Gust
km/h
Spd
kts
Gust
kts
24/11:30pm 11.0 5.2 9.3 89 0.9 NNE 30 41 16 22 1018.4 - 0.0
24/11:00pm 11.0 5.9 9.3 89 0.9 NNE 26 39 14 21 1018.6 1019.0 0.0
24/10:30pm 11.0 4.7 9.1 88 1.0 NNE 32 43 17 23 1018.4 - 0.0
24/10:00pm 10.9 4.3 8.7 86 1.1 NNE 33 48 18 26 1018.4 1018.8 0.0
24/09:30pm 10.7 4.8 9.1 90 0.8 NNE 30 39 16 21 1018.3 - 0.0
24/09:00pm 10.4 4.8 8.7 89 0.8 NNE 28 37 15 20 1018.4 1018.8 0.0
24/08:30pm 10.1 5.2 8.5 90 0.8 NNE 24 32 13 17 1018.4 - 0.0
24/08:00pm 10.1 5.4 9.2 94 0.5 NNE 24 32 13 17 1018.3 1018.7 0.0
24/07:30pm 10.1 4.6 9.0 93 0.6 NNE 28 35 15 19 1018.2 - 0.0
24/07:00pm 10.0 4.5 9.2 95 0.4 NNE 28 33 15 18 1018.0 1018.4 0.0
24/06:30pm 9.8 4.3 9.2 96 0.3 NNE 28 35 15 19 1017.9 - 0.0
24/06:00pm 9.8 4.2 8.9 94 0.4 NNE 28 35 15 19 1017.8 1018.2 0.0
24/05:30pm 9.8 3.8 8.7 93 0.5 NNE 30 37 16 20 1017.7 - 0.0
24/05:00pm 9.7 3.7 8.5 92 0.6 NNE 30 37 16 20 1017.7 1018.1 0.0
24/04:30pm 9.6 3.9 8.2 91 0.7 N 28 35 15 19 1017.6 - 0.0
24/04:00pm 9.8 3.9 7.7 87 1.0 N 28 37 15 20 1017.6 1018.0 0.0
24/03:30pm 10.3 3.5 7.9 85 1.2 N 33 43 18 23 1017.4 - 0.0
24/03:00pm 10.2 3.1 6.5 78 1.7 N 33 44 18 24 1017.3 1017.7 0.0
24/02:30pm 10.6 3.1 6.2 74 2.1 NNE 35 48 19 26 1017.4 - 0.0
24/02:00pm 10.7 3.0 5.3 69 2.5 N 35 46 19 25 1017.3 1017.7 0.0
24/01:30pm 10.7 4.4 5.7 71 2.3 NNE 28 41 15 22 1017.7 - 0.0
24/01:00pm 10.8 5.2 5.6 70 2.4 N 24 35 13 19 1018.1 1018.5 0.0
24/12:30pm 10.5 5.0 5.7 72 2.2 NNE 24 32 13 17 1018.4 - 0.0
24/12:00pm 10.0 4.0 5.4 73 2.1 NNE 26 33 14 18 1018.6 1019.0 0.0
24/11:30am 10.0 5.3 6.0 76 1.9 NNE 20 30 11 16 1019.2 - 0.0
24/11:00am 10.2 5.4 5.4 72 2.2 NNE 20 28 11 15 1019.6 1020.0 0.0
24/10:30am 10.1 5.3 5.5 73 2.1 NNE 20 30 11 16 1019.8 - 0.0
24/10:00am 9.4 5.0 5.0 74 2.0 NNE 17 22 9 12 1019.9 1020.3 0.0
24/09:30am 10.0 6.9 5.4 73 2.1 NNE 11 19 6 10 1019.8 - 0.0
24/09:00am 9.7 7.5 5.1 73 2.1 NNE 6 7 3 4 1019.6 1020.0 0.0
24/08:30am 8.4 5.8 4.0 74 1.9 N 7 11 4 6 1019.6 - 0.0
24/08:00am 7.8 4.7 3.8 76 1.7 N 9 13 5 7 1019.5 1019.9 0.0
24/07:30am 7.6 4.5 3.5 75 1.8 N 9 11 5 6 1019.4 - 0.0
24/07:00am 7.6 4.6 4.0 78 1.6 N 9 11 5 6 1019.5 1019.9 0.0
24/06:30am 7.5 4.5 3.9 78 1.6 NNE 9 13 5 7 1019.4 - 0.0
24/06:00am 7.6 4.6 4.2 79 1.5 NNE 9 13 5 7 1019.2 1019.6 0.0
24/05:30am 7.8 4.7 3.7 75 1.8 N 9 13 5 7 1019.2 - 0.0
24/05:00am 8.2 4.4 3.7 73 2.0 N 13 19 7 10 1019.2 1019.6 0.0
24/04:30am 7.8 4.6 4.9 82 1.3 N 11 15 6 8 1019.2 - 0.0
24/04:00am 8.1 3.9 5.7 85 1.1 N 17 20 9 11 1019.0 1019.3 0.0
24/03:30am 8.0 3.7 5.3 83 1.2 N 17 20 9 11 1019.1 - 0.0
24/03:00am 7.9 3.7 5.5 85 1.1 N 17 20 9 11 1019.2 1019.6 0.0
24/02:30am 8.1 3.6 4.1 76 1.8 N 17 20 9 11 1019.5 - 0.0
24/02:00am 8.2 3.2 3.7 73 2.0 N 19 24 10 13 1019.5 1019.9 0.0
24/01:30am 8.5 3.7 4.5 76 1.8 N 19 24 10 13 1019.5 - 0.0
24/01:00am 8.6 3.3 4.8 77 1.7 N 22 28 12 15 1019.5 1019.9 0.0
24/12:30am 8.8 2.7 5.0 77 1.7 N 26 35 14 19 1019.8 - 0.0
24/12:00am 8.8 2.9 5.9 82 1.3 N 26 33 14 18 1020.1 1020.5 0.0
 
Date/Time
EST
Temp
°C
App
Temp
°C
Dew
Point
Rel
Hum
%
Delta-T
°C
Wind Press
QNH
hPa
Press
MSL
hPa
Rain
since 9 am
mm
Dir
 
Spd
km/h
Gust
km/h
Spd
kts
Gust
kts
23/11:30pm 9.0 2.7 5.7 80 1.5 N 28 33 15 18 1020.3 - 0.0
23/11:00pm 8.8 3.4 6.4 85 1.1 N 24 28 13 15 1020.5 1020.9 0.0
23/10:30pm 9.0 4.0 6.3 83 1.3 N 22 30 12 16 1020.8 - 0.0
23/10:00pm 9.0 4.2 7.3 89 0.8 N 22 28 12 15 1021.0 1021.4 0.0
23/09:30pm 9.0 4.7 7.0 87 0.9 N 19 28 10 15 1021.0 - 0.0
23/09:00pm 9.1 4.6 6.9 86 1.0 N 20 26 11 14 1021.2 1021.6 0.0
23/08:30pm 9.1 3.6 6.0 81 1.4 N 24 32 13 17 1021.2 - 0.0
23/08:00pm 8.9 4.2 6.0 82 1.3 N 20 28 11 15 1021.1 1021.5 0.0
23/07:30pm 9.1 4.9 5.7 79 1.6 NNE 17 22 9 12 1021.1 - 0.0
23/07:00pm 9.1 5.3 5.7 79 1.6 N 15 20 8 11 1021.1 1021.5 0.0
23/06:30pm 9.0 4.9 6.1 82 1.3 N 17 22 9 12 1021.3 - 0.0
23/06:00pm 8.9 5.1 5.8 81 1.4 NNE 15 19 8 10 1021.3 1021.7 0.0
23/05:30pm 9.0 5.2 5.6 79 1.6 N 15 20 8 11 1021.1 - 0.0
23/05:00pm 9.2 5.4 5.6 78 1.7 NNE 15 19 8 10 1021.0 1021.4 0.0
23/04:30pm 9.9 6.5 5.9 76 1.9 NNE 13 19 7 10 1021.0 - 0.0
23/04:00pm 10.3 7.3 6.1 75 2.0 NNE 11 17 6 9 1021.0 1021.4 0.0
23/03:30pm 9.7 6.6 5.5 75 1.9 NNE 11 15 6 8 1020.9 - 0.0
23/03:00pm 11.4 8.4 6.1 70 2.5 NNE 11 15 6 8 1021.0 1021.4 0.0
23/02:30pm 10.2 7.8 5.4 72 2.2 NNE 7 13 4 7 1021.0 - 0.0
23/02:00pm 11.5 8.8 5.8 68 2.7 NNE 9 13 5 7 1021.2 1021.6 0.0
23/01:30pm 11.6 9.5 6.5 71 2.4 S 7 11 4 6 1021.5 - 0.0
23/01:00pm 11.7 9.7 4.4 61 3.3 WNW 4 7 2 4 1021.8 1022.2 0.0
23/12:30pm 10.8 8.5 4.7 66 2.8 WNW 6 9 3 5 1022.2 - 0.0
23/12:00pm 11.7 9.4 5.6 66 2.9 WNW 7 11 4 6 1022.6 1023.1 0.0
23/11:30am 11.3 9.0 5.8 69 2.6 WNW 7 9 4 5 1023.0 - 0.0
23/11:00am 11.0 8.8 6.0 71 2.3 W 7 11 4 6 1023.5 1023.9 0.0
23/10:30am 10.8 8.8 6.2 73 2.2 W 6 11 3 6 1023.6 - 0.0
23/10:00am 10.5 8.3 6.1 74 2.1 W 7 11 4 6 1023.7 1024.1 0.0
23/09:30am 10.2 8.6 6.2 76 1.9 W 4 9 2 5 1023.7 - 0.0
23/09:00am 10.1 9.0 6.8 80 1.6 W 2 9 1 5 1023.6 1024.0 0.2
23/08:30am 9.3 8.1 6.4 82 1.4 SSE 2 9 1 5 1023.4 - 0.0
23/08:00am 8.4 6.7 5.9 84 1.1 W 4 11 2 6 1023.5 1023.9 0.0
23/07:30am 8.3 6.2 5.8 84 1.1 W 6 13 3 7 1023.4 - 0.0
23/07:00am 8.5 6.4 5.8 83 1.2 WSW 6 13 3 7 1023.3 1023.7 0.0
23/06:30am 8.4 6.2 5.5 82 1.3 W 6 15 3 8 1023.2 - 0.0

Other Formats:

Comma delimited format used in spreadsheet applications
http://www.bom.gov.au/fwo/IDT60801/IDT60801.95986.axf

JavaScript Object Notation format (JSON) in row-major order
http://www.bom.gov.au/fwo/IDT60801/IDT60801.95986.json